KRTS

Details ICAO KRTS
Name Reno Stead
Region United States
Timezone America/Los_Angeles (UTC-7.0)
Plans Departing 21
Arriving 20
Stats Elevation 5,050 ft / 1,539 m (AMSL)
Location 39.667800° -119.876622°
Runways 2
Magnetic Variation 13.415° E
Sunrise 2018-05-27 12:37:36 UTC / 2018-05-27 05:37:36 Local
Sunset 2018-05-28 03:18:41 UTC / 2018-05-27 20:18:41 Local
Advertisement - Login to hide

Runways

ID Width Length Bearing (true) Bearing (mag) Surface Threshold Offset Overrun Length
08 150 ft / 46 m 7,589 ft / 2,313 m 95.92° 82.51° Asphalt 0 ft / 0 m 0 ft / 0 m
14 150 ft / 46 m 9,009 ft / 2,746 m 153.68° 140.27° Asphalt 0 ft / 0 m 1,000 ft / 305 m
26 150 ft / 46 m 7,589 ft / 2,313 m 275.93° 262.52° Asphalt 0 ft / 0 m 0 ft / 0 m
32 150 ft / 46 m 9,009 ft / 2,746 m 333.69° 320.28° Asphalt 0 ft / 0 m 700 ft / 213 m

Map

Weather


0- 5 10 15 20 25 30 35+ Temperature / ° C

Clouds and Precipitation
Forecast for 2018-05-27 18:00 UTC. Updated 3 hours ago

Ground ~20,000 ft ~40,000 ft Winds

METAR

KRTS 271955Z AUTO 05009KT 10SM BKN042 17/06 A3011 RMK AO2

TAF

Not found

Frequencies

Recorded 135.17 MHz AWOS 3
Approach 126.30 MHz APP/DEP
Unicom 122.70 MHz CTAF/UNICOM
Warning: Do not use this data for real-world aviation or navigation. No guarantee of current accuracy is given.